createdAt,value
2022-11-26T00:05:43.002Z,8.40
2022-11-26T00:11:36.583Z,8.40
2022-11-26T00:17:30.099Z,8.40
2022-11-26T00:23:28.040Z,8.30
2022-11-26T00:29:21.548Z,8.30
2022-11-26T00:35:15.870Z,8.30
2022-11-26T00:41:16.939Z,8.30
2022-11-26T00:47:11.114Z,8.30
2022-11-26T00:53:05.375Z,8.30
2022-11-26T00:59:00.312Z,8.30
2022-11-26T01:04:53.947Z,8.30
2022-11-26T01:10:47.066Z,8.30
2022-11-26T01:16:42.737Z,8.20
2022-11-26T01:22:36.230Z,8.10
2022-11-26T01:28:29.762Z,8.10
2022-11-26T01:34:24.728Z,8.10
2022-11-26T01:40:55.214Z,8.10
2022-11-26T01:46:50.113Z,8.00
2022-11-26T01:52:45.113Z,7.90
2022-11-26T01:58:42.196Z,7.90
2022-11-26T02:04:39.244Z,7.80
2022-11-26T02:10:35.536Z,7.90
2022-11-26T02:16:45.423Z,7.80
2022-11-26T02:23:05.397Z,7.70
2022-11-26T02:29:08.121Z,7.70
2022-11-26T02:35:07.805Z,7.80
2022-11-26T02:41:02.088Z,7.80
2022-11-26T02:47:00.506Z,7.80
2022-11-26T02:52:58.765Z,7.90
2022-11-26T02:58:53.913Z,7.80
2022-11-26T03:04:50.403Z,7.90
2022-11-26T03:10:45.394Z,7.80
2022-11-26T03:16:38.994Z,7.80
2022-11-26T03:22:32.091Z,7.80
2022-11-26T03:28:27.019Z,7.80
2022-11-26T03:34:20.560Z,7.70
2022-11-26T03:40:17.034Z,7.80
2022-11-26T03:46:11.683Z,7.80
2022-11-26T03:52:05.748Z,7.80
2022-11-26T03:57:58.826Z,7.70
2022-11-26T04:03:53.735Z,7.60
2022-11-26T04:09:47.245Z,7.50
2022-11-26T04:15:40.351Z,7.60
2022-11-26T04:21:35.444Z,7.60
2022-11-26T04:27:29.113Z,7.80
2022-11-26T04:33:22.677Z,7.80
2022-11-26T04:39:17.208Z,7.80
2022-11-26T04:45:12.101Z,7.90
2022-11-26T04:51:05.890Z,7.90
2022-11-26T04:57:00.786Z,7.90
2022-11-26T05:02:54.488Z,7.90
2022-11-26T05:08:48.121Z,8.00
2022-11-26T05:14:42.577Z,7.90
2022-11-26T05:20:35.725Z,7.80
2022-11-26T05:26:29.241Z,7.80
2022-11-26T05:32:24.174Z,7.70
2022-11-26T05:38:17.261Z,7.70
2022-11-26T05:44:10.975Z,7.90
2022-11-26T05:50:06.452Z,7.70
2022-11-26T05:55:59.842Z,7.70
2022-11-26T06:01:53.473Z,7.70
2022-11-26T06:07:47.984Z,7.90
2022-11-26T06:13:41.440Z,7.80
2022-11-26T06:19:34.929Z,7.80
2022-11-26T06:25:29.867Z,7.80
2022-11-26T06:31:23.469Z,7.80
2022-11-26T06:37:17.144Z,7.60
2022-11-26T06:43:12.057Z,7.70
2022-11-26T06:49:07.479Z,7.80
2022-11-26T06:55:01.067Z,7.70
2022-11-26T07:00:55.737Z,7.70
2022-11-26T07:06:49.291Z,7.80
2022-11-26T07:12:42.393Z,7.80
2022-11-26T07:18:37.080Z,7.90
2022-11-26T07:24:30.700Z,7.70
2022-11-26T07:30:24.253Z,7.70
2022-11-26T07:36:20.539Z,7.60
2022-11-26T07:42:13.796Z,7.80
2022-11-26T07:48:11.517Z,7.70
2022-11-26T07:54:11.008Z,7.20
2022-11-26T08:00:04.619Z,7.30
2022-11-26T08:06:07.610Z,7.40
2022-11-26T08:12:02.264Z,7.50
2022-11-26T08:17:56.548Z,7.20
2022-11-26T08:23:49.998Z,7.40
2022-11-26T08:29:44.439Z,7.40
2022-11-26T08:36:05.005Z,7.40
2022-11-26T08:41:52.818Z,7.30
2022-11-26T08:47:47.701Z,7.40
2022-11-26T08:53:41.733Z,7.40
2022-11-26T08:59:34.929Z,7.30
2022-11-26T09:05:29.566Z,7.40
2022-11-26T09:11:22.733Z,7.40
2022-11-26T09:17:15.914Z,7.40
2022-11-26T09:23:10.978Z,7.50
2022-11-26T09:29:04.845Z,7.40
2022-11-26T09:34:57.949Z,7.60
2022-11-26T09:41:01.469Z,7.60
2022-11-26T09:47:12.162Z,7.70
2022-11-26T09:53:14.994Z,7.70
2022-11-26T09:59:15.130Z,7.60
2022-11-26T10:05:10.315Z,7.70
2022-11-26T10:11:11.796Z,7.60
2022-11-26T10:17:19.971Z,7.60
2022-11-26T10:23:21.894Z,7.60
2022-11-26T10:29:23.283Z,7.70
2022-11-26T10:35:19.879Z,7.80
2022-11-26T10:41:13.152Z,7.70
2022-11-26T10:47:25.297Z,7.70
2022-11-26T10:53:24.106Z,7.90
2022-11-26T10:59:22.136Z,7.90
2022-11-26T11:05:22.130Z,7.80
2022-11-26T11:11:22.271Z,7.70
2022-11-26T11:17:36.528Z,7.60
2022-11-26T11:24:00.072Z,7.80
2022-11-26T11:29:48.493Z,7.70
2022-11-26T11:35:42.509Z,7.80
2022-11-26T11:41:40.238Z,7.70
2022-11-26T11:47:39.419Z,7.80
2022-11-26T11:53:40.477Z,7.90
2022-11-26T12:00:09.654Z,7.90
2022-11-26T12:06:20.675Z,7.90
2022-11-26T12:12:22.584Z,7.90
2022-11-26T12:18:23.083Z,7.90
2022-11-26T12:24:26.423Z,7.90
2022-11-26T12:30:23.710Z,7.90
2022-11-26T12:36:23.178Z,8.00
2022-11-26T12:42:23.760Z,7.90
2022-11-26T12:48:29.178Z,8.10
2022-11-26T12:54:28.502Z,8.20
2022-11-26T13:00:31.376Z,8.10
2022-11-26T13:06:44.516Z,8.10
2022-11-26T13:12:48.463Z,8.10
2022-11-26T13:18:47.070Z,8.20
2022-11-26T13:25:00.007Z,8.20
2022-11-26T13:31:07.502Z,8.20
2022-11-26T13:37:25.810Z,8.30
2022-11-26T13:43:50.555Z,8.30
2022-11-26T13:49:50.072Z,8.40
2022-11-26T13:55:48.728Z,8.40
2022-11-26T14:01:42.836Z,8.40
2022-11-26T14:07:37.101Z,8.40
2022-11-26T14:13:32.154Z,8.40
2022-11-26T14:19:59.975Z,8.30
2022-11-26T14:25:53.564Z,8.30
2022-11-26T14:31:54.362Z,8.40
2022-11-26T14:37:53.515Z,8.40
2022-11-26T14:43:47.062Z,8.40
2022-11-26T14:49:46.541Z,8.40
2022-11-26T14:55:40.782Z,8.40
2022-11-26T15:01:34.132Z,8.40
2022-11-26T15:07:30.666Z,8.40
2022-11-26T15:13:27.933Z,8.40
2022-11-26T15:19:21.979Z,8.40
2022-11-26T15:25:20.848Z,8.40
2022-11-26T15:31:14.306Z,8.40
2022-11-26T15:37:07.310Z,8.30
2022-11-26T15:43:05.503Z,8.20
2022-11-26T15:49:01.957Z,8.20
2022-11-26T15:55:16.901Z,8.30
2022-11-26T16:01:18.907Z,8.20
2022-11-26T16:07:14.258Z,8.20
2022-11-26T16:13:18.318Z,8.20
2022-11-26T16:19:15.870Z,8.20
2022-11-26T16:25:22.707Z,8.10
2022-11-26T16:31:18.214Z,8.10
2022-11-26T16:37:21.961Z,8.10
2022-11-26T16:43:15.866Z,8.10
2022-11-26T16:49:11.460Z,8.10
2022-11-26T16:55:07.213Z,8.10
2022-11-26T17:01:00.764Z,8.10
2022-11-26T17:06:53.965Z,8.10
2022-11-26T17:12:50.054Z,8.20
2022-11-26T17:18:43.962Z,8.20
2022-11-26T17:24:38.035Z,8.20
2022-11-26T17:30:32.813Z,8.20
2022-11-26T17:36:26.042Z,8.40
2022-11-26T17:42:20.287Z,8.20
2022-11-26T17:48:15.378Z,8.20
2022-11-26T17:54:08.990Z,8.00
2022-11-26T18:00:02.453Z,8.30
2022-11-26T18:21:06.957Z,8.10
2022-11-26T18:27:00.922Z,8.20
2022-11-26T18:32:54.492Z,8.30
2022-11-26T18:38:49.680Z,8.20
2022-11-26T18:44:43.514Z,8.30
2022-11-26T18:50:38.110Z,8.20
2022-11-26T18:56:33.007Z,8.30
2022-11-26T19:02:26.807Z,8.10
2022-11-26T19:08:20.475Z,8.20
2022-11-26T19:14:16.572Z,8.20
2022-11-26T19:20:10.531Z,8.20
2022-11-26T19:26:06.799Z,8.30
2022-11-26T19:32:01.303Z,8.30
2022-11-26T19:37:54.948Z,8.30
2022-11-26T19:43:48.440Z,8.00
2022-11-26T19:49:43.523Z,8.20
2022-11-26T19:55:37.134Z,8.20
2022-11-26T20:01:32.658Z,8.30
2022-11-26T20:07:27.311Z,8.20
2022-11-26T20:13:20.985Z,8.10
2022-11-26T20:19:14.805Z,8.30
2022-11-26T20:25:14.105Z,8.30
2022-11-26T20:31:07.912Z,8.20
2022-11-26T20:37:02.230Z,8.30
2022-11-26T20:42:57.164Z,8.30
2022-11-26T20:48:50.816Z,8.40
2022-11-26T20:54:45.729Z,8.40
2022-11-26T21:00:43.373Z,8.40
2022-11-26T21:06:37.176Z,8.40
2022-11-26T21:12:30.859Z,8.30
2022-11-26T21:18:25.790Z,8.30
2022-11-26T21:24:20.367Z,8.10
2022-11-26T21:30:14.984Z,8.30
2022-11-26T21:36:18.352Z,8.20
2022-11-26T21:42:11.981Z,8.10
2022-11-26T21:48:05.856Z,8.30
2022-11-26T21:54:00.970Z,8.20
2022-11-26T21:59:54.453Z,8.00
2022-11-26T22:05:48.019Z,8.30
2022-11-26T22:11:44.931Z,8.30
2022-11-26T22:17:38.521Z,8.30
2022-11-26T22:23:32.354Z,8.30
2022-11-26T22:29:27.559Z,8.30
2022-11-26T22:35:21.239Z,8.40
2022-11-26T22:41:15.639Z,8.50
2022-11-26T22:47:10.660Z,8.30
2022-11-26T22:53:03.852Z,8.40
2022-11-26T22:58:57.637Z,8.40
2022-11-26T23:04:53.586Z,8.30
2022-11-26T23:10:48.366Z,8.40
2022-11-26T23:16:43.110Z,8.50
2022-11-26T23:22:38.096Z,8.40
2022-11-26T23:28:31.793Z,8.50
2022-11-26T23:34:25.411Z,8.60
2022-11-26T23:40:20.491Z,8.60
2022-11-26T23:46:17.151Z,8.60
2022-11-26T23:52:10.970Z,8.60
2022-11-26T23:58:05.898Z,8.60
